Time;durP1;ratioP1;P1;durP2;ratioP2;P2;SDS_P1;SDS_P2;PMS_P1;PMS_P2;Temp;Humidity;BMP_temperature;BMP_pressure;BME280_temperature;BME280_humidity;BME280_pressure;Samples;Min_cycle;Max_cycle;Signal;HPM_P1;HPM_P2
2024/01/16 00:01:57;;;;;;;0.98;0.63;;;;;;;;;;4899182;29;20149;-80
2024/01/16 00:04:23;;;;;;;1.60;1.08;;;;;;;;;;4908918;29;20495;-80
2024/01/16 00:06:49;;;;;;;2.70;0.82;;;;;;;;;;4898783;29;20049;-80
2024/01/16 00:09:16;;;;;;;4.50;1.48;;;;;;;;;;4908353;29;20048;-80
2024/01/16 00:11:44;;;;;;;5.03;0.98;;;;;;;;;;4912029;29;20084;-80
2024/01/16 00:14:10;;;;;;;2.38;1.00;;;;;;;;;;4911194;29;20047;-81
2024/01/16 00:16:47;;;;;;;5.00;1.08;;;;;;;;;;4913493;29;20368;-80
2024/01/16 00:19:13;;;;;;;7.97;1.17;;;;;;;;;;4905204;29;20039;-80
2024/01/16 00:21:40;;;;;;;6.50;1.77;;;;;;;;;;4908169;29;20045;-80
2024/01/16 00:24:07;;;;;;;1.40;0.50;;;;;;;;;;4907571;29;20045;-80
2024/01/16 00:26:33;;;;;;;1.23;0.60;;;;;;;;;;4912427;29;20115;-80
2024/01/16 00:28:59;;;;;;;3.75;1.40;;;;;;;;;;4897242;29;20044;-80
2024/01/16 00:31:25;;;;;;;2.53;1.13;;;;;;;;;;4908202;29;20128;-80
2024/01/16 00:33:51;;;;;;;3.83;1.58;;;;;;;;;;4901903;29;20044;-80
2024/01/16 00:36:17;;;;;;;9.80;5.60;;;;;;;;;;4911032;29;20116;-80
2024/01/16 00:38:43;;;;;;;17.50;6.82;;;;;;;;;;4914541;29;20052;-80
2024/01/16 00:41:09;;;;;;;19.80;7.05;;;;;;;;;;4913088;29;20131;-80
2024/01/16 00:43:35;;;;;;;23.10;9.32;;;;;;;;;;4913723;29;20072;-80
2024/01/16 00:46:02;;;;;;;13.48;6.03;;;;;;;;;;4889011;29;20481;-80
2024/01/16 00:48:27;;;;;;;11.25;7.18;;;;;;;;;;4908405;29;20044;-80
2024/01/16 00:50:55;;;;;;;15.38;8.23;;;;;;;;;;4910977;29;20376;-80
2024/01/16 00:53:20;;;;;;;16.85;6.55;;;;;;;;;;4914816;29;20047;-80
2024/01/16 00:55:47;;;;;;;11.95;5.13;;;;;;;;;;4907185;29;20063;-79
2024/01/16 00:58:13;;;;;;;7.90;4.18;;;;;;;;;;4912955;29;20044;-80
2024/01/16 01:00:39;;;;;;;4.93;2.22;;;;;;;;;;4910708;29;20052;-80
2024/01/16 01:03:05;;;;;;;7.22;2.55;;;;;;;;;;4903164;29;20045;-80
2024/01/16 01:05:31;;;;;;;6.63;1.73;;;;;;;;;;4894531;29;20070;-80
2024/01/16 01:07:57;;;;;;;3.55;2.00;;;;;;;;;;4905151;29;20040;-80
2024/01/16 01:10:23;;;;;;;3.63;1.58;;;;;;;;;;4902787;29;20994;-80
2024/01/16 01:12:52;;;;;;;5.10;2.05;;;;;;;;;;4910098;29;20083;-80
2024/01/16 01:15:18;;;;;;;2.60;1.08;;;;;;;;;;4903230;29;20278;-80
2024/01/16 01:17:44;;;;;;;4.20;1.70;;;;;;;;;;4898521;29;20049;-80
2024/01/16 01:20:12;;;;;;;2.08;0.93;;;;;;;;;;4909954;29;20032;-80
2024/01/16 01:22:38;;;;;;;3.53;1.48;;;;;;;;;;4912697;29;20054;-81
2024/01/16 01:25:04;;;;;;;2.60;1.25;;;;;;;;;;4913107;29;20024;-80
2024/01/16 01:27:30;;;;;;;5.72;0.82;;;;;;;;;;4911428;29;20405;-80
2024/01/16 01:29:58;;;;;;;0.93;0.45;;;;;;;;;;4904096;29;20033;-78
2024/01/16 01:32:24;;;;;;;4.43;1.33;;;;;;;;;;4890065;29;20048;-78
2024/01/16 01:34:50;;;;;;;4.00;1.17;;;;;;;;;;4903376;29;20040;-80
2024/01/16 01:37:16;;;;;;;3.25;1.55;;;;;;;;;;4899040;29;20055;-80
2024/01/16 01:39:42;;;;;;;2.10;1.20;;;;;;;;;;4904157;29;20040;-80
2024/01/16 01:42:08;;;;;;;0.98;0.43;;;;;;;;;;4909960;29;20481;-80
2024/01/16 01:44:34;;;;;;;4.50;1.70;;;;;;;;;;4892305;29;20044;-80
2024/01/16 01:47:00;;;;;;;4.95;1.38;;;;;;;;;;4904282;29;20056;-80
2024/01/16 01:49:26;;;;;;;2.40;1.15;;;;;;;;;;4910524;29;20539;-80
2024/01/16 01:51:53;;;;;;;5.45;1.00;;;;;;;;;;4911713;29;20044;-80
2024/01/16 01:54:20;;;;;;;3.65;1.25;;;;;;;;;;4906969;29;20723;-80
2024/01/16 01:56:48;;;;;;;2.60;1.45;;;;;;;;;;4904317;29;20176;-80
2024/01/16 01:59:14;;;;;;;4.50;1.52;;;;;;;;;;4897244;29;20120;-80
2024/01/16 02:01:41;;;;;;;1.20;0.82;;;;;;;;;;4906837;29;20063;-80
2024/01/16 02:04:09;;;;;;;5.68;2.20;;;;;;;;;;4879129;29;20064;-80
2024/01/16 02:06:35;;;;;;;2.08;1.10;;;;;;;;;;4911369;29;20101;-80
2024/01/16 02:09:01;;;;;;;3.15;1.30;;;;;;;;;;4903951;29;20112;-80
2024/01/16 02:11:27;;;;;;;2.10;1.00;;;;;;;;;;4907656;29;20044;-80
2024/01/16 02:13:53;;;;;;;2.88;1.65;;;;;;;;;;4901956;29;20052;-80
2024/01/16 02:16:19;;;;;;;2.05;1.10;;;;;;;;;;4909796;29;20052;-80
2024/01/16 02:18:46;;;;;;;2.60;1.08;;;;;;;;;;4906683;29;20045;-80
2024/01/16 02:21:13;;;;;;;3.00;1.48;;;;;;;;;;4907931;29;20044;-80
2024/01/16 02:23:39;;;;;;;7.53;1.50;;;;;;;;;;4911602;29;20048;-80
2024/01/16 02:26:05;;;;;;;4.93;1.60;;;;;;;;;;4908380;29;20088;-80
2024/01/16 02:28:31;;;;;;;1.40;1.13;;;;;;;;;;4913774;29;20044;-80
2024/01/16 02:30:57;;;;;;;4.43;2.60;;;;;;;;;;4889793;29;20046;-80
2024/01/16 02:33:23;;;;;;;1.92;1.08;;;;;;;;;;4908364;29;20044;-78
2024/01/16 02:35:49;;;;;;;2.40;1.50;;;;;;;;;;4893654;29;20052;-78
2024/01/16 02:38:15;;;;;;;2.08;0.93;;;;;;;;;;4905786;29;20803;-78
2024/01/16 02:40:41;;;;;;;1.95;0.90;;;;;;;;;;4905352;29;20047;-80
2024/01/16 02:43:07;;;;;;;4.68;1.80;;;;;;;;;;4909298;29;20036;-80
2024/01/16 02:45:34;;;;;;;3.35;1.38;;;;;;;;;;4911495;29;20160;-80
2024/01/16 02:48:00;;;;;;;3.40;0.93;;;;;;;;;;4891151;29;20051;-80
2024/01/16 02:50:26;;;;;;;2.50;1.23;;;;;;;;;;4904120;29;20032;-80
2024/01/16 02:52:52;;;;;;;1.35;0.68;;;;;;;;;;4903498;29;20127;-80
2024/01/16 02:55:18;;;;;;;1.90;1.10;;;;;;;;;;4910662;29;20391;-80
2024/01/16 02:57:44;;;;;;;5.53;1.42;;;;;;;;;;4895064;29;20048;-80
2024/01/16 03:00:11;;;;;;;3.50;1.33;;;;;;;;;;4915725;29;20048;-80
2024/01/16 03:02:37;;;;;;;3.17;1.02;;;;;;;;;;4901793;29;20048;-80
2024/01/16 03:05:05;;;;;;;1.17;0.60;;;;;;;;;;4903857;29;20118;-80
2024/01/16 03:07:31;;;;;;;2.05;1.02;;;;;;;;;;4911841;29;20403;-80
2024/01/16 03:09:57;;;;;;;2.42;1.10;;;;;;;;;;4916822;29;20428;-80
2024/01/16 03:12:23;;;;;;;1.35;0.80;;;;;;;;;;4905936;29;20058;-80
2024/01/16 03:14:49;;;;;;;2.70;1.08;;;;;;;;;;4913350;29;20052;-80
2024/01/16 03:17:15;;;;;;;1.30;0.77;;;;;;;;;;4912854;29;20067;-80
2024/01/16 03:19:43;;;;;;;1.52;0.75;;;;;;;;;;4912506;29;20036;-80
2024/01/16 03:22:09;;;;;;;2.33;1.05;;;;;;;;;;4915164;29;20143;-80
2024/01/16 03:24:35;;;;;;;3.25;1.30;;;;;;;;;;4908877;29;20131;-80
2024/01/16 03:27:01;;;;;;;1.50;0.52;;;;;;;;;;4916613;29;20049;-80
2024/01/16 03:29:27;;;;;;;1.92;0.75;;;;;;;;;;4896655;29;20043;-80
2024/01/16 03:31:53;;;;;;;1.35;0.77;;;;;;;;;;4907133;29;20056;-81
2024/01/16 03:34:19;;;;;;;2.75;1.10;;;;;;;;;;4911926;29;20405;-80
2024/01/16 03:36:45;;;;;;;4.35;1.17;;;;;;;;;;4909662;29;20048;-80
2024/01/16 03:39:11;;;;;;;1.85;0.88;;;;;;;;;;4910401;29;20055;-79
2024/01/16 03:41:38;;;;;;;3.65;1.42;;;;;;;;;;4905416;29;20466;-79
2024/01/16 03:44:04;;;;;;;4.53;1.83;;;;;;;;;;4911637;29;20036;-79
2024/01/16 03:46:30;;;;;;;1.60;0.52;;;;;;;;;;4913597;29;20052;-79
2024/01/16 03:48:56;;;;;;;3.60;1.08;;;;;;;;;;4906617;29;20882;-80
2024/01/16 03:51:22;;;;;;;3.92;1.33;;;;;;;;;;4915171;29;20044;-79
2024/01/16 03:53:48;;;;;;;0.93;0.80;;;;;;;;;;4908403;29;20044;-80
2024/01/16 03:56:15;;;;;;;7.15;0.60;;;;;;;;;;4906352;29;20048;-79
2024/01/16 03:58:41;;;;;;;1.65;0.85;;;;;;;;;;4915132;29;20067;-79
2024/01/16 04:01:07;;;;;;;1.02;0.50;;;;;;;;;;4902079;29;20040;-79
2024/01/16 04:03:34;;;;;;;1.40;0.75;;;;;;;;;;4903529;29;20048;-79
2024/01/16 04:06:00;;;;;;;2.55;0.68;;;;;;;;;;4901823;29;20044;-80
2024/01/16 04:08:26;;;;;;;2.05;0.65;;;;;;;;;;4908640;29;20080;-78
2024/01/16 04:10:52;;;;;;;2.97;1.50;;;;;;;;;;4915117;29;20084;-78
2024/01/16 04:13:20;;;;;;;2.40;0.80;;;;;;;;;;4913384;29;20056;-78
2024/01/16 04:15:46;;;;;;;2.25;0.82;;;;;;;;;;4912482;29;20048;-78
2024/01/16 04:18:12;;;;;;;2.55;0.95;;;;;;;;;;4910770;29;20051;-77
2024/01/16 04:20:38;;;;;;;2.15;1.30;;;;;;;;;;4910096;29;20382;-78
2024/01/16 04:23:04;;;;;;;2.17;1.20;;;;;;;;;;4903988;29;20063;-78
2024/01/16 04:25:30;;;;;;;2.00;1.13;;;;;;;;;;4898857;29;20108;-78
2024/01/16 04:27:57;;;;;;;1.77;0.77;;;;;;;;;;4909858;29;20388;-80
2024/01/16 04:30:23;;;;;;;3.65;0.90;;;;;;;;;;4908933;29;20075;-80
2024/01/16 04:32:49;;;;;;;2.15;1.05;;;;;;;;;;4897067;29;20565;-80
2024/01/16 04:35:15;;;;;;;1.30;1.08;;;;;;;;;;4904922;29;20142;-80
2024/01/16 04:37:41;;;;;;;3.90;1.80;;;;;;;;;;4902758;29;20144;-80
2024/01/16 04:40:08;;;;;;;4.07;1.58;;;;;;;;;;4905670;29;20430;-80
2024/01/16 04:42:34;;;;;;;3.70;1.77;;;;;;;;;;4889457;29;20084;-78
2024/01/16 04:45:00;;;;;;;2.80;1.08;;;;;;;;;;4901846;29;20044;-78
2024/01/16 04:47:26;;;;;;;6.13;1.42;;;;;;;;;;4915658;29;20063;-78
2024/01/16 04:49:52;;;;;;;3.50;1.98;;;;;;;;;;4912497;29;20068;-78
2024/01/16 04:52:18;;;;;;;7.88;2.22;;;;;;;;;;4914604;29;20532;-78
2024/01/16 04:54:45;;;;;;;2.53;1.40;;;;;;;;;;4911277;29;20044;-80
2024/01/16 04:57:11;;;;;;;6.15;1.38;;;;;;;;;;4906515;29;20044;-80
2024/01/16 04:59:37;;;;;;;5.65;2.67;;;;;;;;;;4904013;29;20044;-80
2024/01/16 05:02:03;;;;;;;2.10;0.93;;;;;;;;;;4908034;29;20048;-80
2024/01/16 05:04:29;;;;;;;1.52;1.20;;;;;;;;;;4910594;29;20050;-80
2024/01/16 05:06:56;;;;;;;5.63;1.73;;;;;;;;;;4900775;29;20076;-80
2024/01/16 05:09:22;;;;;;;4.55;2.25;;;;;;;;;;4890973;29;20048;-80
2024/01/16 05:11:49;;;;;;;3.45;1.65;;;;;;;;;;4906519;29;20036;-80
2024/01/16 05:14:15;;;;;;;2.63;1.52;;;;;;;;;;4903781;29;20048;-80
2024/01/16 05:16:41;;;;;;;6.70;2.40;;;;;;;;;;4902194;29;20055;-80
2024/01/16 05:19:07;;;;;;;3.30;1.38;;;;;;;;;;4907976;29;20119;-80
2024/01/16 05:21:33;;;;;;;2.08;1.27;;;;;;;;;;4907778;29;20124;-80
2024/01/16 05:23:59;;;;;;;2.17;1.45;;;;;;;;;;4911454;29;20049;-79
2024/01/16 05:26:25;;;;;;;1.45;1.30;;;;;;;;;;4909296;29;20044;-80
2024/01/16 05:28:51;;;;;;;2.95;1.42;;;;;;;;;;4896874;29;20092;-80
2024/01/16 05:31:17;;;;;;;4.85;2.00;;;;;;;;;;4909680;29;20032;-79
2024/01/16 05:33:43;;;;;;;5.88;1.05;;;;;;;;;;4911216;29;20127;-79
2024/01/16 05:36:09;;;;;;;0.90;0.80;;;;;;;;;;4910669;29;20040;-79
2024/01/16 05:38:35;;;;;;;1.20;0.75;;;;;;;;;;4906253;29;20104;-79
2024/01/16 05:41:02;;;;;;;1.08;0.45;;;;;;;;;;4905163;29;20043;-79
2024/01/16 05:43:29;;;;;;;3.22;1.15;;;;;;;;;;4911772;29;20784;-80
2024/01/16 05:45:55;;;;;;;3.35;0.38;;;;;;;;;;4913861;29;20127;-80
2024/01/16 05:48:21;;;;;;;0.55;0.20;;;;;;;;;;4910065;29;20435;-79
2024/01/16 05:50:47;;;;;;;4.60;0.70;;;;;;;;;;4903324;29;20054;-80
2024/01/16 05:53:13;;;;;;;1.55;0.88;;;;;;;;;;4906739;29;20048;-80
2024/01/16 05:55:39;;;;;;;1.45;0.88;;;;;;;;;;4912511;29;20054;-80
2024/01/16 05:58:05;;;;;;;3.53;0.70;;;;;;;;;;4908064;29;20052;-80
2024/01/16 06:00:33;;;;;;;0.73;0.40;;;;;;;;;;4908853;29;20553;-80
2024/01/16 06:02:59;;;;;;;2.65;1.02;;;;;;;;;;4905156;29;20156;-80
2024/01/16 06:05:25;;;;;;;2.72;1.58;;;;;;;;;;4889071;29;20029;-79
2024/01/16 06:07:51;;;;;;;2.42;1.20;;;;;;;;;;4905342;29;20049;-80
2024/01/16 06:10:17;;;;;;;0.80;0.52;;;;;;;;;;4897637;29;20032;-79
2024/01/16 06:12:43;;;;;;;1.75;0.45;;;;;;;;;;4911372;29;20048;-79
2024/01/16 06:15:11;;;;;;;3.38;1.98;;;;;;;;;;4892492;29;20724;-77
2024/01/16 06:17:37;;;;;;;2.85;1.40;;;;;;;;;;4905871;29;20048;-78
2024/01/16 06:20:04;;;;;;;3.10;1.30;;;;;;;;;;4892102;29;20107;-78
2024/01/16 06:22:30;;;;;;;5.40;1.40;;;;;;;;;;4905163;29;20132;-80
2024/01/16 06:24:56;;;;;;;1.75;1.15;;;;;;;;;;4905854;29;20049;-79
2024/01/16 06:27:22;;;;;;;2.28;1.42;;;;;;;;;;4905274;29;20103;-79
2024/01/16 06:29:48;;;;;;;10.73;1.98;;;;;;;;;;4914125;29;20455;-80
2024/01/16 06:32:14;;;;;;;1.15;0.68;;;;;;;;;;4910684;29;20080;-78
2024/01/16 06:34:41;;;;;;;2.53;1.50;;;;;;;;;;4912937;29;20045;-78
2024/01/16 06:37:08;;;;;;;1.58;0.85;;;;;;;;;;4910110;29;20056;-78
2024/01/16 06:39:34;;;;;;;2.38;1.55;;;;;;;;;;4893063;29;20103;-79
2024/01/16 06:42:00;;;;;;;3.92;1.75;;;;;;;;;;4916934;29;20044;-79
2024/01/16 06:44:26;;;;;;;1.40;0.60;;;;;;;;;;4911509;29;20040;-79
2024/01/16 06:46:52;;;;;;;2.33;0.85;;;;;;;;;;4902733;29;20040;-79
2024/01/16 06:49:18;;;;;;;;;;;;;;;;;;4914145;29;20111;-79
2024/01/16 06:51:44;;;;;;;0.60;0.30;;;;;;;;;;4906197;29;19955;-79
2024/01/16 06:54:10;;;;;;;0.20;0.13;;;;;;;;;;4916366;29;20125;-79
2024/01/16 06:56:36;;;;;;;0.65;0.20;;;;;;;;;;4904855;29;20053;-79
2024/01/16 06:59:02;;;;;;;1.33;0.35;;;;;;;;;;4904231;29;20044;-79
2024/01/16 07:01:28;;;;;;;1.38;0.50;;;;;;;;;;4910733;29;20040;-80
2024/01/16 07:03:54;;;;;;;0.55;0.52;;;;;;;;;;4898560;29;20463;-78
2024/01/16 07:06:20;;;;;;;1.20;0.35;;;;;;;;;;4909295;29;20123;-79
2024/01/16 07:08:46;;;;;;;1.30;0.57;;;;;;;;;;4906952;29;20054;-79
2024/01/16 07:11:13;;;;;;;1.67;0.40;;;;;;;;;;4902694;29;20517;-78
2024/01/16 07:13:40;;;;;;;1.08;0.47;;;;;;;;;;4901355;29;20060;-80
2024/01/16 07:16:06;;;;;;;1.17;0.52;;;;;;;;;;4902219;29;20123;-79
2024/01/16 07:18:33;;;;;;;2.25;1.30;;;;;;;;;;4906276;29;20082;-79
2024/01/16 07:20:59;;;;;;;1.65;1.38;;;;;;;;;;4908905;29;20063;-79
2024/01/16 07:23:25;;;;;;;6.43;1.15;;;;;;;;;;4911596;29;20375;-79
2024/01/16 07:25:51;;;;;;;4.50;1.13;;;;;;;;;;4914573;29;20044;-79
2024/01/16 07:28:17;;;;;;;15.20;2.58;;;;;;;;;;4916268;29;20550;-79
2024/01/16 07:30:43;;;;;;;4.67;2.13;;;;;;;;;;4904445;29;20538;-79
2024/01/16 07:33:09;;;;;;;4.88;1.65;;;;;;;;;;4910226;29;20116;-79
2024/01/16 07:35:35;;;;;;;3.40;1.77;;;;;;;;;;4910405;29;20044;-80
2024/01/16 07:38:01;;;;;;;;;;;;;;;;;;4910567;29;20065;-80
2024/01/16 07:40:27;;;;;;;2.28;0.77;;;;;;;;;;4913608;29;19979;-79
2024/01/16 07:42:53;;;;;;;2.70;1.33;;;;;;;;;;4908731;29;20475;-79
2024/01/16 07:45:19;;;;;;;1.80;0.85;;;;;;;;;;4907364;29;20044;-79
2024/01/16 07:47:45;;;;;;;1.97;1.17;;;;;;;;;;4911330;29;21029;-79
2024/01/16 07:50:11;;;;;;;;;;;;;;;;;;4908687;29;20538;-79
2024/01/16 07:52:37;;;;;;;;;;;;;;;;;;4907774;29;20006;-80
2024/01/16 07:55:03;;;;;;;0.45;0.30;;;;;;;;;;4911632;29;20346;-79
2024/01/16 07:57:29;;;;;;;1.98;0.98;;;;;;;;;;4903158;29;20441;-79
2024/01/16 07:59:55;;;;;;;5.28;1.75;;;;;;;;;;4889865;29;20417;-79
2024/01/16 08:02:21;;;;;;;3.65;1.23;;;;;;;;;;4901516;29;20518;-79
2024/01/16 08:04:47;;;;;;;;;;;;;;;;;;4913718;29;20051;-79
2024/01/16 08:07:13;;;;;;;;;;;;;;;;;;4899245;29;19916;-79
2024/01/16 08:09:39;;;;;;;;;;;;;;;;;;4904986;29;19919;-80
2024/01/16 08:12:05;;;;;;;2.70;1.25;;;;;;;;;;4905342;29;19962;-79
2024/01/16 08:14:32;;;;;;;2.05;0.95;;;;;;;;;;4903156;29;20416;-80
2024/01/16 08:16:58;;;;;;;4.85;1.02;;;;;;;;;;4904604;29;20403;-79
2024/01/16 08:19:24;;;;;;;4.20;0.95;;;;;;;;;;4902264;29;20054;-81
2024/01/16 08:21:50;;;;;;;2.25;1.20;;;;;;;;;;4913072;29;20099;-79
2024/01/16 08:24:16;;;;;;;2.00;0.68;;;;;;;;;;4914007;29;20048;-79
2024/01/16 08:26:41;;;;;;;;;;;;;;;;;;4910908;29;20123;-79
2024/01/16 08:29:07;;;;;;;;;;;;;;;;;;4897509;29;19998;-79
2024/01/16 08:31:33;;;;;;;1.85;1.00;;;;;;;;;;4890380;29;19911;-80
2024/01/16 08:33:59;;;;;;;1.95;0.65;;;;;;;;;;4908422;29;20499;-80
2024/01/16 08:36:25;;;;;;;12.98;2.90;;;;;;;;;;4905484;29;20048;-80
2024/01/16 08:38:51;;;;;;;2.15;1.33;;;;;;;;;;4905945;29;20060;-80
2024/01/16 08:41:17;;;;;;;4.38;1.55;;;;;;;;;;4910059;29;20048;-80
2024/01/16 08:43:43;;;;;;;;;;;;;;;;;;4906940;29;20055;-81
2024/01/16 08:46:09;;;;;;;;;;;;;;;;;;4909331;29;20009;-81
2024/01/16 08:48:36;;;;;;;2.15;0.77;;;;;;;;;;4912346;29;20643;-80
2024/01/16 08:51:02;;;;;;;1.77;0.80;;;;;;;;;;4909476;29;20412;-80
2024/01/16 08:53:28;;;;;;;5.10;3.08;;;;;;;;;;4913445;29;20049;-80
2024/01/16 08:55:54;;;;;;;2.45;1.08;;;;;;;;;;4906281;29;20096;-80
2024/01/16 08:58:20;;;;;;;3.58;1.05;;;;;;;;;;4894610;29;20052;-80
2024/01/16 09:00:47;;;;;;;3.33;0.98;;;;;;;;;;4904338;29;20127;-80
2024/01/16 09:03:13;;;;;;;5.53;1.42;;;;;;;;;;4912625;29;20052;-80
2024/01/16 09:05:39;;;;;;;4.97;1.10;;;;;;;;;;4910281;29;20481;-80
2024/01/16 09:08:05;;;;;;;2.78;0.88;;;;;;;;;;4912173;29;20041;-80
2024/01/16 09:10:31;;;;;;;2.38;1.33;;;;;;;;;;4908988;29;20052;-80
2024/01/16 09:12:57;;;;;;;3.33;1.52;;;;;;;;;;4913614;29;20451;-80
2024/01/16 09:15:23;;;;;;;1.50;0.93;;;;;;;;;;4913527;29;20040;-80
2024/01/16 09:17:49;;;;;;;2.20;0.98;;;;;;;;;;4889293;29;20515;-80
2024/01/16 09:20:15;;;;;;;2.05;0.65;;;;;;;;;;4900022;29;20067;-80
2024/01/16 09:22:41;;;;;;;3.75;1.65;;;;;;;;;;4908703;29;20108;-80
2024/01/16 09:25:07;;;;;;;5.90;1.75;;;;;;;;;;4903495;29;20474;-79
2024/01/16 09:27:33;;;;;;;4.82;1.95;;;;;;;;;;4904924;29;20044;-81
2024/01/16 09:30:00;;;;;;;3.25;1.27;;;;;;;;;;4889277;29;20425;-80
2024/01/16 09:32:26;;;;;;;5.25;1.75;;;;;;;;;;4907554;29;20037;-81
2024/01/16 09:34:52;;;;;;;3.92;1.27;;;;;;;;;;4910641;29;20052;-81
2024/01/16 09:37:18;;;;;;;2.63;1.45;;;;;;;;;;4902852;29;20063;-80
2024/01/16 09:39:44;;;;;;;2.33;1.23;;;;;;;;;;4904288;29;20057;-80
2024/01/16 09:42:10;;;;;;;1.20;0.60;;;;;;;;;;4890649;29;20074;-80
2024/01/16 09:44:36;;;;;;;2.58;0.98;;;;;;;;;;4902607;29;20072;-81
2024/01/16 09:47:03;;;;;;;2.22;1.55;;;;;;;;;;4907774;29;20035;-81
2024/01/16 09:49:30;;;;;;;5.60;2.58;;;;;;;;;;4905385;29;20068;-81
2024/01/16 09:51:59;;;;;;;3.75;1.60;;;;;;;;;;4911740;29;20482;-81
2024/01/16 09:54:26;;;;;;;1.98;1.33;;;;;;;;;;4911506;29;20044;-81
2024/01/16 09:56:54;;;;;;;4.60;1.75;;;;;;;;;;4906176;29;20052;-81
2024/01/16 09:59:21;;;;;;;3.05;1.63;;;;;;;;;;4896135;29;20438;-81
2024/01/16 10:01:48;;;;;;;3.15;0.73;;;;;;;;;;4882115;29;20080;-80
2024/01/16 10:04:15;;;;;;;1.25;0.60;;;;;;;;;;4903311;29;20063;-80
2024/01/16 10:06:42;;;;;;;3.35;1.42;;;;;;;;;;4901747;29;20389;-79
2024/01/16 10:09:08;;;;;;;0.90;0.68;;;;;;;;;;4908075;29;20055;-80
2024/01/16 10:11:34;;;;;;;1.95;0.70;;;;;;;;;;4911303;29;20036;-80
2024/01/16 10:14:01;;;;;;;2.35;0.60;;;;;;;;;;4908137;29;20071;-80
2024/01/16 10:16:45;;;;;;;3.13;1.67;;;;;;;;;;4911373;29;20076;-80
2024/01/16 10:19:12;;;;;;;1.63;0.93;;;;;;;;;;4908059;29;20050;-80
2024/01/16 10:21:38;;;;;;;2.03;1.17;;;;;;;;;;4905592;29;20040;-80
2024/01/16 10:24:13;;;;;;;9.00;2.03;;;;;;;;;;4907419;29;20049;-80
2024/01/16 10:26:39;;;;;;;1.58;0.55;;;;;;;;;;4908610;29;20884;-81
2024/01/16 10:29:05;;;;;;;1.30;0.77;;;;;;;;;;4901267;29;20115;-81
2024/01/16 10:31:31;;;;;;;2.85;1.02;;;;;;;;;;4910726;29;20103;-81
2024/01/16 10:33:57;;;;;;;4.28;1.90;;;;;;;;;;4890521;29;20052;-80
2024/01/16 10:36:25;;;;;;;11.30;3.00;;;;;;;;;;4902149;29;20041;-80
2024/01/16 10:38:57;;;;;;;3.70;2.60;;;;;;;;;;4885998;29;20155;-80
2024/01/16 10:41:26;;;;;;;6.65;3.08;;;;;;;;;;4908592;29;20044;-81
2024/01/16 10:44:07;;;;;;;4.07;1.50;;;;;;;;;;4901562;29;20797;-80
2024/01/16 10:46:33;;;;;;;3.65;2.10;;;;;;;;;;4904143;29;20042;-79
2024/01/16 10:49:00;;;;;;;3.95;1.40;;;;;;;;;;4905163;29;20377;-79
2024/01/16 10:51:27;;;;;;;9.55;2.22;;;;;;;;;;4907212;29;20119;-80
2024/01/16 10:53:58;;;;;;;2.05;1.13;;;;;;;;;;4906606;29;20043;-81
2024/01/16 10:56:25;;;;;;;3.88;1.95;;;;;;;;;;4912246;29;20074;-81
2024/01/16 10:58:58;;;;;;;1.80;1.13;;;;;;;;;;4905495;29;20056;-80
2024/01/16 11:01:24;;;;;;;4.45;1.70;;;;;;;;;;4907616;29;20181;-81
2024/01/16 11:03:52;;;;;;;0.95;0.63;;;;;;;;;;4901094;29;20051;-80
2024/01/16 11:06:19;;;;;;;5.97;2.33;;;;;;;;;;4905418;29;20046;-80
2024/01/16 11:08:48;;;;;;;7.90;0.68;;;;;;;;;;4912826;29;20040;-80
2024/01/16 11:11:15;;;;;;;2.20;1.23;;;;;;;;;;4908628;29;20040;-81
2024/01/16 11:13:44;;;;;;;1.38;0.68;;;;;;;;;;4911665;29;20073;-79
2024/01/16 11:16:11;;;;;;;2.03;0.95;;;;;;;;;;4908114;29;20539;-80
2024/01/16 11:18:37;;;;;;;1.27;0.60;;;;;;;;;;4909078;29;20044;-80
2024/01/16 11:21:04;;;;;;;2.15;0.80;;;;;;;;;;4902949;29;20049;-80
2024/01/16 11:23:30;;;;;;;0.20;0.17;;;;;;;;;;4909370;29;20048;-80
2024/01/16 11:25:56;;;;;;;1.08;0.45;;;;;;;;;;4905654;29;20075;-79
2024/01/16 11:28:27;;;;;;;1.42;0.40;;;;;;;;;;4910343;29;20568;-80
2024/01/16 11:30:53;;;;;;;0.28;0.20;;;;;;;;;;4904229;29;20044;-80
2024/01/16 11:33:34;;;;;;;0.32;0.30;;;;;;;;;;4906220;29;20776;-80
2024/01/16 11:36:00;;;;;;;3.80;0.70;;;;;;;;;;4915337;29;20079;-80
2024/01/16 11:38:27;;;;;;;1.23;0.38;;;;;;;;;;4894134;29;20104;-80
2024/01/16 11:40:54;;;;;;;0.38;0.30;;;;;;;;;;4914106;29;20060;-80
2024/01/16 11:43:38;;;;;;;1.75;0.40;;;;;;;;;;4905056;29;20776;-80
2024/01/16 11:46:05;;;;;;;2.40;0.50;;;;;;;;;;4907105;29;20040;-80
2024/01/16 11:48:32;;;;;;;0.10;0.10;;;;;;;;;;4909102;29;20052;-80
2024/01/16 11:50:57;;;;;;;0.98;0.57;;;;;;;;;;4906015;29;20040;-80
2024/01/16 11:53:40;;;;;;;0.63;0.30;;;;;;;;;;4909360;29;20522;-80
2024/01/16 11:56:25;;;;;;;1.08;0.50;;;;;;;;;;4902979;29;20111;-80
2024/01/16 11:58:57;;;;;;;0.10;0.10;;;;;;;;;;4901967;29;20051;-80
2024/01/16 12:01:23;;;;;;;0.68;0.25;;;;;;;;;;4905204;29;20118;-80
2024/01/16 12:04:20;;;;;;;1.23;0.43;;;;;;;;;;4897103;29;20686;-80
2024/01/16 12:06:57;;;;;;;0.80;0.40;;;;;;;;;;4899710;29;20083;-80
2024/01/16 12:09:26;;;;;;;1.17;0.50;;;;;;;;;;4894036;29;20100;-81
2024/01/16 12:12:00;;;;;;;2.17;1.23;;;;;;;;;;4905031;29;20033;-80
2024/01/16 12:14:27;;;;;;;;;;;;;;;;;;4911433;29;20801;-80
2024/01/16 12:16:53;;;;;;;;;;;;;;;;;;4910610;29;20318;-80
2024/01/16 12:19:18;;;;;;;3.65;1.23;;;;;;;;;;4910432;29;19919;-80
2024/01/16 12:21:45;;;;;;;1.17;0.60;;;;;;;;;;4901749;29;20064;-80
2024/01/16 12:24:11;;;;;;;7.43;0.85;;;;;;;;;;4914041;29;20046;-81
2024/01/16 12:26:39;;;;;;;1.00;0.50;;;;;;;;;;4906150;29;20394;-81
2024/01/16 12:29:05;;;;;;;0.75;0.30;;;;;;;;;;4912184;29;20044;-80
2024/01/16 12:31:31;;;;;;;0.17;0.10;;;;;;;;;;4915315;29;20099;-80
2024/01/16 12:34:07;;;;;;;2.58;0.38;;;;;;;;;;4911342;29;20483;-80
2024/01/16 12:36:33;;;;;;;0.10;0.10;;;;;;;;;;4912144;29;20521;-80
2024/01/16 12:38:59;;;;;;;0.17;0.10;;;;;;;;;;4913613;29;20139;-81
2024/01/16 12:41:26;;;;;;;0.20;0.10;;;;;;;;;;4904663;29;20045;-80
2024/01/16 12:43:52;;;;;;;0.20;0.20;;;;;;;;;;4911575;29;20048;-80
2024/01/16 12:46:19;;;;;;;0.85;0.30;;;;;;;;;;4900852;29;20039;-80
2024/01/16 12:48:47;;;;;;;2.25;0.93;;;;;;;;;;4899443;29;20479;-80
2024/01/16 12:51:13;;;;;;;1.48;0.70;;;;;;;;;;4913185;29;20084;-80
2024/01/16 12:53:39;;;;;;;1.85;0.40;;;;;;;;;;4896875;29;20384;-80
2024/01/16 12:56:08;;;;;;;0.60;0.43;;;;;;;;;;4905676;29;20040;-80
2024/01/16 12:58:34;;;;;;;1.15;0.50;;;;;;;;;;4914915;29;20490;-81
2024/01/16 13:01:20;;;;;;;0.30;0.30;;;;;;;;;;4906647;29;20417;-81
2024/01/16 13:03:46;;;;;;;0.95;0.73;;;;;;;;;;4905381;29;20052;-80
2024/01/16 13:06:17;;;;;;;0.75;0.47;;;;;;;;;;4901407;29;20040;-80
2024/01/16 13:08:43;;;;;;;4.10;2.03;;;;;;;;;;4908561;29;20040;-80
2024/01/16 13:11:09;;;;;;;7.85;1.63;;;;;;;;;;4911534;29;20040;-81
2024/01/16 13:13:36;;;;;;;4.15;1.48;;;;;;;;;;4914354;29;20056;-81
2024/01/16 13:16:05;;;;;;;1.85;1.23;;;;;;;;;;4907510;29;20055;-80
2024/01/16 13:18:31;;;;;;;1.67;0.75;;;;;;;;;;4899102;29;20040;-81
2024/01/16 13:20:58;;;;;;;0.50;0.30;;;;;;;;;;4907316;29;20103;-81
2024/01/16 13:23:25;;;;;;;0.90;0.50;;;;;;;;;;4914208;29;20779;-80
2024/01/16 13:25:51;;;;;;;0.82;0.38;;;;;;;;;;4905298;29;20047;-80
2024/01/16 13:28:18;;;;;;;0.82;0.60;;;;;;;;;;4911208;29;20040;-80
2024/01/16 13:30:44;;;;;;;1.23;0.65;;;;;;;;;;4909665;29;20044;-80
2024/01/16 13:33:10;;;;;;;1.35;0.45;;;;;;;;;;4914711;29;20293;-80
2024/01/16 13:35:40;;;;;;;0.13;0.05;;;;;;;;;;4885594;29;20407;-81
2024/01/16 13:38:07;;;;;;;0.75;0.38;;;;;;;;;;4880754;29;20063;-81
2024/01/16 13:40:33;;;;;;;2.63;0.57;;;;;;;;;;4911728;29;20450;-80
2024/01/16 13:43:00;;;;;;;0.95;0.40;;;;;;;;;;4910784;29;20059;-81
2024/01/16 13:45:26;;;;;;;0.80;0.63;;;;;;;;;;4903324;29;20048;-80
2024/01/16 13:47:52;;;;;;;1.38;0.45;;;;;;;;;;4908441;29;20072;-80
2024/01/16 13:50:18;;;;;;;2.13;0.68;;;;;;;;;;4904130;29;20143;-80
2024/01/16 13:52:44;;;;;;;0.40;0.25;;;;;;;;;;4897703;29;20212;-80
2024/01/16 13:55:11;;;;;;;4.78;0.85;;;;;;;;;;4891533;29;20403;-80
2024/01/16 13:57:37;;;;;;;5.32;2.13;;;;;;;;;;4905894;29;20047;-80
2024/01/16 14:00:04;;;;;;;3.67;1.70;;;;;;;;;;4913018;29;20498;-80
2024/01/16 14:02:30;;;;;;;2.85;1.00;;;;;;;;;;4896126;29;20132;-81
2024/01/16 14:04:56;;;;;;;1.30;0.70;;;;;;;;;;4906714;29;20053;-81
2024/01/16 14:07:22;;;;;;;0.57;0.30;;;;;;;;;;4912292;29;20036;-81
2024/01/16 14:09:48;;;;;;;0.47;0.35;;;;;;;;;;4904988;29;20050;-81
2024/01/16 14:12:14;;;;;;;1.33;0.20;;;;;;;;;;4904174;29;20092;-80
2024/01/16 14:14:41;;;;;;;13.70;0.77;;;;;;;;;;4901638;29;20077;-81
2024/01/16 14:17:07;;;;;;;0.95;0.30;;;;;;;;;;4899234;29;20051;-81
2024/01/16 14:19:37;;;;;;;2.30;0.75;;;;;;;;;;4908472;29;20060;-80
2024/01/16 14:22:04;;;;;;;1.23;0.55;;;;;;;;;;4902177;29;20490;-81
2024/01/16 14:24:30;;;;;;;0.20;0.10;;;;;;;;;;4896891;29;20064;-80
2024/01/16 14:26:59;;;;;;;1.15;0.60;;;;;;;;;;4912095;29;20052;-80
2024/01/16 14:29:26;;;;;;;1.95;0.60;;;;;;;;;;4904733;29;20048;-80
2024/01/16 14:31:55;;;;;;;0.98;0.35;;;;;;;;;;4910758;29;20510;-80
2024/01/16 14:34:21;;;;;;;1.02;0.50;;;;;;;;;;4913341;29;20498;-80
2024/01/16 14:36:47;;;;;;;1.85;0.85;;;;;;;;;;4909391;29;20047;-81
2024/01/16 14:39:17;;;;;;;1.05;0.35;;;;;;;;;;4913164;29;20090;-80
2024/01/16 14:41:43;;;;;;;0.95;0.60;;;;;;;;;;4902454;29;20040;-80
2024/01/16 14:44:10;;;;;;;0.73;0.30;;;;;;;;;;4899617;29;20056;-80